sensor_id;sensor_type;location;lat;lon;timestamp;P1;durP1;ratioP1;P2;durP2;ratioP2
85877;SDS011;76393;44.098;3.072;2024-02-26T00:01:46;2.45;;;0.50;;
85877;SDS011;76393;44.098;3.072;2024-02-26T00:04:12;2.35;;;0.50;;
85877;SDS011;76393;44.098;3.072;2024-02-26T00:06:38;2.08;;;0.50;;
85877;SDS011;76393;44.098;3.072;2024-02-26T00:09:07;2.55;;;0.50;;
85877;SDS011;76393;44.098;3.072;2024-02-26T00:11:33;2.10;;;0.50;;
85877;SDS011;76393;44.098;3.072;2024-02-26T00:14:00;1.65;;;0.60;;
85877;SDS011;76393;44.098;3.072;2024-02-26T00:16:26;3.60;;;0.70;;
85877;SDS011;76393;44.098;3.072;2024-02-26T00:18:51;1.88;;;0.60;;
85877;SDS011;76393;44.098;3.072;2024-02-26T00:21:17;3.97;;;0.60;;
85877;SDS011;76393;44.098;3.072;2024-02-26T00:23:42;3.90;;;1.00;;
85877;SDS011;76393;44.098;3.072;2024-02-26T00:26:08;3.25;;;1.05;;
85877;SDS011;76393;44.098;3.072;2024-02-26T00:28:34;1.73;;;0.80;;
85877;SDS011;76393;44.098;3.072;2024-02-26T00:30:59;3.60;;;0.90;;
85877;SDS011;76393;44.098;3.072;2024-02-26T00:33:25;2.85;;;0.98;;
85877;SDS011;76393;44.098;3.072;2024-02-26T00:35:50;3.67;;;0.90;;
85877;SDS011;76393;44.098;3.072;2024-02-26T00:38:16;1.90;;;0.63;;
85877;SDS011;76393;44.098;3.072;2024-02-26T00:40:42;1.45;;;0.40;;
85877;SDS011;76393;44.098;3.072;2024-02-26T00:43:07;2.78;;;0.35;;
85877;SDS011;76393;44.098;3.072;2024-02-26T00:45:32;4.07;;;0.45;;
85877;SDS011;76393;44.098;3.072;2024-02-26T00:47:58;3.22;;;0.40;;
85877;SDS011;76393;44.098;3.072;2024-02-26T00:50:26;0.90;;;0.20;;
85877;SDS011;76393;44.098;3.072;2024-02-26T00:52:52;1.75;;;0.20;;
85877;SDS011;76393;44.098;3.072;2024-02-26T00:55:17;2.03;;;0.30;;
85877;SDS011;76393;44.098;3.072;2024-02-26T00:57:43;3.05;;;0.40;;
85877;SDS011;76393;44.098;3.072;2024-02-26T01:00:09;5.40;;;0.20;;
85877;SDS011;76393;44.098;3.072;2024-02-26T01:02:34;1.42;;;0.25;;
85877;SDS011;76393;44.098;3.072;2024-02-26T01:05:00;1.77;;;0.30;;
85877;SDS011;76393;44.098;3.072;2024-02-26T01:07:26;2.55;;;0.60;;
85877;SDS011;76393;44.098;3.072;2024-02-26T01:09:51;1.65;;;0.40;;
85877;SDS011;76393;44.098;3.072;2024-02-26T01:12:17;1.35;;;0.20;;
85877;SDS011;76393;44.098;3.072;2024-02-26T01:14:42;3.83;;;0.28;;
85877;SDS011;76393;44.098;3.072;2024-02-26T01:17:08;4.43;;;0.57;;
85877;SDS011;76393;44.098;3.072;2024-02-26T01:19:33;2.25;;;0.40;;
85877;SDS011;76393;44.098;3.072;2024-02-26T01:21:59;2.28;;;0.30;;
85877;SDS011;76393;44.098;3.072;2024-02-26T01:24:24;4.57;;;0.40;;
85877;SDS011;76393;44.098;3.072;2024-02-26T01:26:50;3.05;;;0.50;;
85877;SDS011;76393;44.098;3.072;2024-02-26T01:29:15;4.35;;;0.65;;
85877;SDS011;76393;44.098;3.072;2024-02-26T01:31:41;2.88;;;0.80;;
85877;SDS011;76393;44.098;3.072;2024-02-26T01:34:06;2.45;;;0.45;;
85877;SDS011;76393;44.098;3.072;2024-02-26T01:36:32;4.20;;;0.50;;
85877;SDS011;76393;44.098;3.072;2024-02-26T01:38:57;2.08;;;0.40;;
85877;SDS011;76393;44.098;3.072;2024-02-26T01:41:23;2.72;;;0.50;;
85877;SDS011;76393;44.098;3.072;2024-02-26T01:43:48;2.38;;;0.40;;
85877;SDS011;76393;44.098;3.072;2024-02-26T01:46:14;4.03;;;0.50;;
85877;SDS011;76393;44.098;3.072;2024-02-26T01:48:43;5.53;;;0.70;;
85877;SDS011;76393;44.098;3.072;2024-02-26T01:51:10;3.17;;;0.38;;
85877;SDS011;76393;44.098;3.072;2024-02-26T01:53:36;4.78;;;0.50;;
85877;SDS011;76393;44.098;3.072;2024-02-26T01:56:01;4.53;;;0.63;;
85877;SDS011;76393;44.098;3.072;2024-02-26T01:58:28;3.28;;;0.50;;
85877;SDS011;76393;44.098;3.072;2024-02-26T02:00:55;4.63;;;0.57;;
85877;SDS011;76393;44.098;3.072;2024-02-26T02:03:21;2.42;;;0.43;;
85877;SDS011;76393;44.098;3.072;2024-02-26T02:05:47;3.35;;;0.63;;
85877;SDS011;76393;44.098;3.072;2024-02-26T02:08:12;6.68;;;0.60;;
85877;SDS011;76393;44.098;3.072;2024-02-26T02:10:39;4.05;;;0.60;;
85877;SDS011;76393;44.098;3.072;2024-02-26T02:13:06;4.85;;;0.98;;
85877;SDS011;76393;44.098;3.072;2024-02-26T02:15:32;1.52;;;0.40;;
85877;SDS011;76393;44.098;3.072;2024-02-26T02:17:58;5.30;;;1.08;;
85877;SDS011;76393;44.098;3.072;2024-02-26T02:20:41;2.45;;;0.50;;
85877;SDS011;76393;44.098;3.072;2024-02-26T02:23:08;3.30;;;0.60;;
85877;SDS011;76393;44.098;3.072;2024-02-26T02:25:33;2.95;;;0.80;;
85877;SDS011;76393;44.098;3.072;2024-02-26T02:27:59;3.75;;;0.57;;
85877;SDS011;76393;44.098;3.072;2024-02-26T02:30:25;2.55;;;0.50;;
85877;SDS011;76393;44.098;3.072;2024-02-26T02:32:53;3.17;;;0.50;;
85877;SDS011;76393;44.098;3.072;2024-02-26T02:35:18;4.57;;;0.77;;
85877;SDS011;76393;44.098;3.072;2024-02-26T02:37:44;2.97;;;0.65;;
85877;SDS011;76393;44.098;3.072;2024-02-26T02:40:10;5.38;;;0.75;;
85877;SDS011;76393;44.098;3.072;2024-02-26T02:42:35;2.17;;;0.70;;
85877;SDS011;76393;44.098;3.072;2024-02-26T02:45:01;4.43;;;0.70;;
85877;SDS011;76393;44.098;3.072;2024-02-26T02:47:26;5.32;;;0.60;;
85877;SDS011;76393;44.098;3.072;2024-02-26T02:49:52;4.68;;;0.77;;
85877;SDS011;76393;44.098;3.072;2024-02-26T02:52:17;2.63;;;0.60;;
85877;SDS011;76393;44.098;3.072;2024-02-26T02:54:43;5.15;;;0.85;;
85877;SDS011;76393;44.098;3.072;2024-02-26T02:57:08;3.28;;;0.70;;
85877;SDS011;76393;44.098;3.072;2024-02-26T02:59:35;1.60;;;0.45;;
85877;SDS011;76393;44.098;3.072;2024-02-26T03:02:00;3.42;;;0.73;;
85877;SDS011;76393;44.098;3.072;2024-02-26T03:04:26;4.47;;;0.55;;
85877;SDS011;76393;44.098;3.072;2024-02-26T03:06:52;3.78;;;0.68;;
85877;SDS011;76393;44.098;3.072;2024-02-26T03:09:17;4.97;;;0.60;;
85877;SDS011;76393;44.098;3.072;2024-02-26T03:11:43;2.65;;;0.30;;
85877;SDS011;76393;44.098;3.072;2024-02-26T03:14:08;3.95;;;0.50;;
85877;SDS011;76393;44.098;3.072;2024-02-26T03:16:34;2.70;;;0.43;;
85877;SDS011;76393;44.098;3.072;2024-02-26T03:19:00;3.50;;;0.45;;
85877;SDS011;76393;44.098;3.072;2024-02-26T03:21:26;3.38;;;0.68;;
85877;SDS011;76393;44.098;3.072;2024-02-26T03:23:52;6.10;;;1.05;;
85877;SDS011;76393;44.098;3.072;2024-02-26T03:26:18;2.90;;;0.45;;
85877;SDS011;76393;44.098;3.072;2024-02-26T03:28:44;4.18;;;0.70;;
85877;SDS011;76393;44.098;3.072;2024-02-26T03:31:09;4.38;;;0.50;;
85877;SDS011;76393;44.098;3.072;2024-02-26T03:33:35;2.42;;;0.50;;
85877;SDS011;76393;44.098;3.072;2024-02-26T03:36:01;4.22;;;0.75;;
85877;SDS011;76393;44.098;3.072;2024-02-26T03:38:28;10.10;;;2.20;;
85877;SDS011;76393;44.098;3.072;2024-02-26T03:40:54;9.25;;;1.25;;
85877;SDS011;76393;44.098;3.072;2024-02-26T03:43:20;5.18;;;0.95;;
85877;SDS011;76393;44.098;3.072;2024-02-26T03:45:45;5.90;;;0.60;;
85877;SDS011;76393;44.098;3.072;2024-02-26T03:48:10;5.13;;;0.63;;
85877;SDS011;76393;44.098;3.072;2024-02-26T03:50:36;2.53;;;0.55;;
85877;SDS011;76393;44.098;3.072;2024-02-26T03:53:01;6.78;;;0.73;;
85877;SDS011;76393;44.098;3.072;2024-02-26T03:55:27;6.15;;;0.85;;
85877;SDS011;76393;44.098;3.072;2024-02-26T03:57:53;8.95;;;0.80;;
85877;SDS011;76393;44.098;3.072;2024-02-26T04:00:18;5.30;;;0.70;;
85877;SDS011;76393;44.098;3.072;2024-02-26T04:02:44;9.07;;;0.55;;
85877;SDS011;76393;44.098;3.072;2024-02-26T04:05:10;6.75;;;0.93;;
85877;SDS011;76393;44.098;3.072;2024-02-26T04:07:36;7.70;;;0.90;;
85877;SDS011;76393;44.098;3.072;2024-02-26T04:10:02;6.18;;;0.70;;
85877;SDS011;76393;44.098;3.072;2024-02-26T04:12:30;5.90;;;0.70;;
85877;SDS011;76393;44.098;3.072;2024-02-26T04:14:55;5.88;;;0.50;;
85877;SDS011;76393;44.098;3.072;2024-02-26T04:17:21;9.30;;;0.80;;
85877;SDS011;76393;44.098;3.072;2024-02-26T04:19:46;8.00;;;0.80;;
85877;SDS011;76393;44.098;3.072;2024-02-26T04:22:12;8.35;;;0.82;;
85877;SDS011;76393;44.098;3.072;2024-02-26T04:24:38;10.00;;;1.00;;
85877;SDS011;76393;44.098;3.072;2024-02-26T04:27:03;5.80;;;0.77;;
85877;SDS011;76393;44.098;3.072;2024-02-26T04:29:29;11.60;;;0.80;;
85877;SDS011;76393;44.098;3.072;2024-02-26T04:31:54;6.55;;;0.63;;
85877;SDS011;76393;44.098;3.072;2024-02-26T04:34:20;9.18;;;0.98;;
85877;SDS011;76393;44.098;3.072;2024-02-26T04:36:45;11.82;;;0.88;;
85877;SDS011;76393;44.098;3.072;2024-02-26T04:39:13;9.15;;;0.80;;
85877;SDS011;76393;44.098;3.072;2024-02-26T04:41:38;7.60;;;0.70;;
85877;SDS011;76393;44.098;3.072;2024-02-26T04:44:04;8.27;;;0.80;;
85877;SDS011;76393;44.098;3.072;2024-02-26T04:46:30;11.50;;;1.15;;
85877;SDS011;76393;44.098;3.072;2024-02-26T04:48:55;14.30;;;1.50;;
85877;SDS011;76393;44.098;3.072;2024-02-26T04:51:21;9.43;;;0.80;;
85877;SDS011;76393;44.098;3.072;2024-02-26T04:53:47;7.43;;;1.02;;
85877;SDS011;76393;44.098;3.072;2024-02-26T04:56:12;11.50;;;1.45;;
85877;SDS011;76393;44.098;3.072;2024-02-26T04:58:38;8.10;;;0.77;;
85877;SDS011;76393;44.098;3.072;2024-02-26T05:01:05;7.80;;;1.08;;
85877;SDS011;76393;44.098;3.072;2024-02-26T05:03:34;9.65;;;0.82;;
85877;SDS011;76393;44.098;3.072;2024-02-26T05:06:00;14.75;;;1.38;;
85877;SDS011;76393;44.098;3.072;2024-02-26T05:08:26;11.50;;;0.93;;
85877;SDS011;76393;44.098;3.072;2024-02-26T05:10:51;10.43;;;1.30;;
85877;SDS011;76393;44.098;3.072;2024-02-26T05:13:17;7.85;;;1.10;;
85877;SDS011;76393;44.098;3.072;2024-02-26T05:15:43;8.60;;;0.95;;
85877;SDS011;76393;44.098;3.072;2024-02-26T05:18:10;8.88;;;0.60;;
85877;SDS011;76393;44.098;3.072;2024-02-26T05:20:35;8.85;;;0.90;;
85877;SDS011;76393;44.098;3.072;2024-02-26T05:23:03;8.80;;;0.68;;
85877;SDS011;76393;44.098;3.072;2024-02-26T05:25:29;7.78;;;1.20;;
85877;SDS011;76393;44.098;3.072;2024-02-26T05:27:55;8.27;;;1.02;;
85877;SDS011;76393;44.098;3.072;2024-02-26T05:30:20;9.88;;;1.10;;
85877;SDS011;76393;44.098;3.072;2024-02-26T05:32:46;10.02;;;1.10;;
85877;SDS011;76393;44.098;3.072;2024-02-26T05:35:11;8.23;;;0.95;;
85877;SDS011;76393;44.098;3.072;2024-02-26T05:37:37;6.80;;;1.10;;
85877;SDS011;76393;44.098;3.072;2024-02-26T05:40:02;7.93;;;0.90;;
85877;SDS011;76393;44.098;3.072;2024-02-26T05:42:29;7.55;;;0.70;;
85877;SDS011;76393;44.098;3.072;2024-02-26T05:44:55;8.43;;;1.00;;
85877;SDS011;76393;44.098;3.072;2024-02-26T05:47:20;9.82;;;0.80;;
85877;SDS011;76393;44.098;3.072;2024-02-26T05:49:46;5.28;;;0.88;;
85877;SDS011;76393;44.098;3.072;2024-02-26T05:52:11;9.15;;;1.75;;
85877;SDS011;76393;44.098;3.072;2024-02-26T05:54:40;5.32;;;0.80;;
85877;SDS011;76393;44.098;3.072;2024-02-26T05:57:05;5.00;;;0.40;;
85877;SDS011;76393;44.098;3.072;2024-02-26T05:59:31;10.05;;;0.68;;
85877;SDS011;76393;44.098;3.072;2024-02-26T06:01:56;4.47;;;0.75;;
85877;SDS011;76393;44.098;3.072;2024-02-26T06:04:22;3.83;;;0.43;;
85877;SDS011;76393;44.098;3.072;2024-02-26T06:06:47;6.13;;;0.32;;
85877;SDS011;76393;44.098;3.072;2024-02-26T06:09:13;3.40;;;0.52;;
85877;SDS011;76393;44.098;3.072;2024-02-26T06:11:38;6.47;;;0.50;;
85877;SDS011;76393;44.098;3.072;2024-02-26T06:14:04;5.60;;;0.82;;
85877;SDS011;76393;44.098;3.072;2024-02-26T06:16:30;4.10;;;0.60;;
85877;SDS011;76393;44.098;3.072;2024-02-26T06:18:55;3.50;;;0.47;;
85877;SDS011;76393;44.098;3.072;2024-02-26T06:21:21;2.08;;;0.15;;
85877;SDS011;76393;44.098;3.072;2024-02-26T06:23:47;3.50;;;0.20;;
85877;SDS011;76393;44.098;3.072;2024-02-26T06:26:13;1.73;;;0.32;;
85877;SDS011;76393;44.098;3.072;2024-02-26T06:28:38;6.90;;;0.60;;
85877;SDS011;76393;44.098;3.072;2024-02-26T06:31:05;0.95;;;0.20;;
85877;SDS011;76393;44.098;3.072;2024-02-26T06:33:31;3.53;;;0.25;;
85877;SDS011;76393;44.098;3.072;2024-02-26T06:35:57;2.88;;;0.40;;
85877;SDS011;76393;44.098;3.072;2024-02-26T06:38:22;2.35;;;0.20;;
85877;SDS011;76393;44.098;3.072;2024-02-26T06:40:48;3.45;;;0.32;;
85877;SDS011;76393;44.098;3.072;2024-02-26T06:43:14;5.53;;;0.40;;
85877;SDS011;76393;44.098;3.072;2024-02-26T06:45:39;1.42;;;0.38;;
85877;SDS011;76393;44.098;3.072;2024-02-26T06:48:05;3.67;;;0.73;;
85877;SDS011;76393;44.098;3.072;2024-02-26T06:50:31;2.38;;;0.50;;
85877;SDS011;76393;44.098;3.072;2024-02-26T06:52:56;1.83;;;0.50;;
85877;SDS011;76393;44.098;3.072;2024-02-26T06:55:22;6.35;;;0.43;;
85877;SDS011;76393;44.098;3.072;2024-02-26T06:57:47;2.70;;;0.40;;
85877;SDS011;76393;44.098;3.072;2024-02-26T07:00:13;5.55;;;0.60;;
85877;SDS011;76393;44.098;3.072;2024-02-26T07:02:41;1.67;;;0.35;;
85877;SDS011;76393;44.098;3.072;2024-02-26T07:05:07;4.50;;;0.47;;
85877;SDS011;76393;44.098;3.072;2024-02-26T07:07:33;2.20;;;0.43;;
85877;SDS011;76393;44.098;3.072;2024-02-26T07:09:59;3.60;;;0.40;;
85877;SDS011;76393;44.098;3.072;2024-02-26T07:12:25;4.13;;;0.45;;
85877;SDS011;76393;44.098;3.072;2024-02-26T07:14:51;4.70;;;0.40;;
85877;SDS011;76393;44.098;3.072;2024-02-26T07:17:17;2.80;;;0.40;;
85877;SDS011;76393;44.098;3.072;2024-02-26T07:19:43;3.70;;;0.30;;
85877;SDS011;76393;44.098;3.072;2024-02-26T07:22:09;3.70;;;0.65;;
85877;SDS011;76393;44.098;3.072;2024-02-26T07:24:34;1.63;;;0.30;;
85877;SDS011;76393;44.098;3.072;2024-02-26T07:27:01;1.52;;;0.20;;
85877;SDS011;76393;44.098;3.072;2024-02-26T07:29:27;3.50;;;0.65;;
85877;SDS011;76393;44.098;3.072;2024-02-26T07:31:56;4.03;;;0.50;;
85877;SDS011;76393;44.098;3.072;2024-02-26T07:34:21;3.55;;;0.57;;
85877;SDS011;76393;44.098;3.072;2024-02-26T07:36:52;6.70;;;0.68;;
85877;SDS011;76393;44.098;3.072;2024-02-26T07:39:19;5.40;;;0.70;;
85877;SDS011;76393;44.098;3.072;2024-02-26T07:41:44;4.22;;;0.60;;
85877;SDS011;76393;44.098;3.072;2024-02-26T07:44:12;6.32;;;0.63;;
85877;SDS011;76393;44.098;3.072;2024-02-26T07:46:38;3.58;;;0.75;;
85877;SDS011;76393;44.098;3.072;2024-02-26T07:49:04;7.03;;;0.75;;
85877;SDS011;76393;44.098;3.072;2024-02-26T07:51:30;7.20;;;0.50;;
85877;SDS011;76393;44.098;3.072;2024-02-26T07:53:55;2.95;;;0.30;;
85877;SDS011;76393;44.098;3.072;2024-02-26T07:56:21;5.07;;;0.50;;
85877;SDS011;76393;44.098;3.072;2024-02-26T07:58:48;9.00;;;1.05;;
85877;SDS011;76393;44.098;3.072;2024-02-26T08:01:13;2.38;;;0.55;;
85877;SDS011;76393;44.098;3.072;2024-02-26T08:03:42;4.97;;;0.50;;
85877;SDS011;76393;44.098;3.072;2024-02-26T08:06:09;4.65;;;0.38;;
85877;SDS011;76393;44.098;3.072;2024-02-26T08:08:35;3.97;;;0.32;;
85877;SDS011;76393;44.098;3.072;2024-02-26T08:11:01;1.98;;;0.57;;
85877;SDS011;76393;44.098;3.072;2024-02-26T08:13:26;4.07;;;0.50;;
85877;SDS011;76393;44.098;3.072;2024-02-26T08:15:52;2.47;;;0.35;;
85877;SDS011;76393;44.098;3.072;2024-02-26T08:18:18;3.38;;;0.60;;
85877;SDS011;76393;44.098;3.072;2024-02-26T08:20:44;3.25;;;0.25;;
85877;SDS011;76393;44.098;3.072;2024-02-26T08:23:10;2.60;;;0.60;;
85877;SDS011;76393;44.098;3.072;2024-02-26T08:25:36;3.30;;;0.38;;
85877;SDS011;76393;44.098;3.072;2024-02-26T08:28:01;5.15;;;0.50;;
85877;SDS011;76393;44.098;3.072;2024-02-26T08:30:27;5.00;;;0.50;;
85877;SDS011;76393;44.098;3.072;2024-02-26T08:32:54;2.42;;;0.50;;
85877;SDS011;76393;44.098;3.072;2024-02-26T08:35:19;2.42;;;0.35;;
85877;SDS011;76393;44.098;3.072;2024-02-26T08:37:45;5.03;;;0.65;;
85877;SDS011;76393;44.098;3.072;2024-02-26T08:40:11;5.65;;;0.40;;
85877;SDS011;76393;44.098;3.072;2024-02-26T08:42:37;4.68;;;0.63;;
85877;SDS011;76393;44.098;3.072;2024-02-26T08:45:04;6.45;;;0.80;;
85877;SDS011;76393;44.098;3.072;2024-02-26T08:47:30;5.25;;;0.25;;
85877;SDS011;76393;44.098;3.072;2024-02-26T08:49:56;3.55;;;0.40;;
85877;SDS011;76393;44.098;3.072;2024-02-26T08:52:21;3.78;;;0.40;;
85877;SDS011;76393;44.098;3.072;2024-02-26T08:54:48;8.40;;;0.50;;
85877;SDS011;76393;44.098;3.072;2024-02-26T08:57:13;5.05;;;1.00;;
85877;SDS011;76393;44.098;3.072;2024-02-26T08:59:39;3.90;;;0.45;;
85877;SDS011;76393;44.098;3.072;2024-02-26T09:02:04;3.17;;;0.32;;
85877;SDS011;76393;44.098;3.072;2024-02-26T09:04:30;5.82;;;0.50;;
85877;SDS011;76393;44.098;3.072;2024-02-26T09:06:56;2.58;;;0.20;;
85877;SDS011;76393;44.098;3.072;2024-02-26T09:09:21;2.58;;;0.30;;
85877;SDS011;76393;44.098;3.072;2024-02-26T09:11:47;3.33;;;0.65;;
85877;SDS011;76393;44.098;3.072;2024-02-26T09:14:17;2.53;;;0.30;;
85877;SDS011;76393;44.098;3.072;2024-02-26T09:16:43;2.55;;;0.38;;
85877;SDS011;76393;44.098;3.072;2024-02-26T09:19:08;2.20;;;0.25;;
85877;SDS011;76393;44.098;3.072;2024-02-26T09:21:35;2.28;;;0.40;;
85877;SDS011;76393;44.098;3.072;2024-02-26T09:24:00;5.90;;;0.65;;
85877;SDS011;76393;44.098;3.072;2024-02-26T09:26:26;1.60;;;0.28;;
85877;SDS011;76393;44.098;3.072;2024-02-26T09:28:51;4.57;;;0.52;;
85877;SDS011;76393;44.098;3.072;2024-02-26T09:31:17;3.00;;;0.40;;
85877;SDS011;76393;44.098;3.072;2024-02-26T09:33:43;3.95;;;0.35;;
85877;SDS011;76393;44.098;3.072;2024-02-26T09:36:09;3.00;;;0.35;;
85877;SDS011;76393;44.098;3.072;2024-02-26T09:38:36;5.07;;;0.30;;
85877;SDS011;76393;44.098;3.072;2024-02-26T09:41:06;2.53;;;0.20;;
85877;SDS011;76393;44.098;3.072;2024-02-26T09:43:35;2.13;;;0.20;;
85877;SDS011;76393;44.098;3.072;2024-02-26T09:46:04;3.00;;;0.35;;
85877;SDS011;76393;44.098;3.072;2024-02-26T09:48:31;2.67;;;0.30;;
85877;SDS011;76393;44.098;3.072;2024-02-26T09:50:57;5.25;;;0.85;;
85877;SDS011;76393;44.098;3.072;2024-02-26T09:53:23;3.58;;;0.43;;
85877;SDS011;76393;44.098;3.072;2024-02-26T09:55:48;3.08;;;0.20;;
85877;SDS011;76393;44.098;3.072;2024-02-26T09:58:14;4.53;;;0.60;;
85877;SDS011;76393;44.098;3.072;2024-02-26T10:00:43;3.05;;;0.45;;
85877;SDS011;76393;44.098;3.072;2024-02-26T10:03:13;2.47;;;0.32;;
85877;SDS011;76393;44.098;3.072;2024-02-26T10:05:40;2.42;;;0.35;;
85877;SDS011;76393;44.098;3.072;2024-02-26T10:08:06;6.75;;;0.90;;
85877;SDS011;76393;44.098;3.072;2024-02-26T10:10:33;2.08;;;0.20;;
85877;SDS011;76393;44.098;3.072;2024-02-26T10:12:59;4.13;;;0.22;;
85877;SDS011;76393;44.098;3.072;2024-02-26T10:15:25;2.90;;;0.60;;
85877;SDS011;76393;44.098;3.072;2024-02-26T10:17:51;3.13;;;0.50;;
85877;SDS011;76393;44.098;3.072;2024-02-26T10:20:17;4.47;;;0.30;;
85877;SDS011;76393;44.098;3.072;2024-02-26T10:22:46;1.83;;;0.20;;
85877;SDS011;76393;44.098;3.072;2024-02-26T10:25:11;0.90;;;0.28;;
85877;SDS011;76393;44.098;3.072;2024-02-26T10:27:37;2.15;;;0.38;;
85877;SDS011;76393;44.098;3.072;2024-02-26T10:30:19;3.10;;;0.52;;
85877;SDS011;76393;44.098;3.072;2024-02-26T10:32:46;1.83;;;0.30;;
85877;SDS011;76393;44.098;3.072;2024-02-26T10:35:13;2.75;;;0.30;;
85877;SDS011;76393;44.098;3.072;2024-02-26T10:37:40;2.75;;;0.40;;
85877;SDS011;76393;44.098;3.072;2024-02-26T10:40:08;2.08;;;0.30;;
85877;SDS011;76393;44.098;3.072;2024-02-26T10:42:36;3.08;;;0.65;;
85877;SDS011;76393;44.098;3.072;2024-02-26T10:45:01;1.75;;;0.25;;
85877;SDS011;76393;44.098;3.072;2024-02-26T10:47:28;1.85;;;0.30;;
85877;SDS011;76393;44.098;3.072;2024-02-26T10:49:55;1.63;;;0.20;;
85877;SDS011;76393;44.098;3.072;2024-02-26T10:52:21;2.97;;;0.43;;
85877;SDS011;76393;44.098;3.072;2024-02-26T10:54:50;4.07;;;0.35;;
85877;SDS011;76393;44.098;3.072;2024-02-26T10:57:19;1.88;;;0.10;;
85877;SDS011;76393;44.098;3.072;2024-02-26T10:59:45;3.10;;;0.30;;
85877;SDS011;76393;44.098;3.072;2024-02-26T11:02:11;2.83;;;0.20;;
85877;SDS011;76393;44.098;3.072;2024-02-26T11:04:39;3.08;;;0.40;;
85877;SDS011;76393;44.098;3.072;2024-02-26T11:07:05;4.03;;;0.30;;
85877;SDS011;76393;44.098;3.072;2024-02-26T11:09:31;4.80;;;0.47;;
85877;SDS011;76393;44.098;3.072;2024-02-26T11:11:57;0.90;;;0.28;;
85877;SDS011;76393;44.098;3.072;2024-02-26T11:14:24;1.42;;;0.22;;
85877;SDS011;76393;44.098;3.072;2024-02-26T11:16:51;2.47;;;0.40;;
85877;SDS011;76393;44.098;3.072;2024-02-26T11:19:17;6.40;;;0.52;;
85877;SDS011;76393;44.098;3.072;2024-02-26T11:21:43;2.30;;;0.32;;
85877;SDS011;76393;44.098;3.072;2024-02-26T11:24:13;3.45;;;0.30;;
85877;SDS011;76393;44.098;3.072;2024-02-26T11:26:43;2.65;;;0.57;;
85877;SDS011;76393;44.098;3.072;2024-02-26T11:29:16;3.13;;;0.30;;
85877;SDS011;76393;44.098;3.072;2024-02-26T11:31:44;2.65;;;0.40;;
85877;SDS011;76393;44.098;3.072;2024-02-26T11:34:10;1.95;;;0.30;;
85877;SDS011;76393;44.098;3.072;2024-02-26T11:36:36;3.03;;;0.98;;
85877;SDS011;76393;44.098;3.072;2024-02-26T11:39:01;5.30;;;0.50;;
85877;SDS011;76393;44.098;3.072;2024-02-26T11:41:27;3.35;;;0.30;;
85877;SDS011;76393;44.098;3.072;2024-02-26T11:43:53;2.72;;;0.40;;
85877;SDS011;76393;44.098;3.072;2024-02-26T11:46:29;3.53;;;0.20;;
85877;SDS011;76393;44.098;3.072;2024-02-26T11:49:00;5.47;;;0.50;;
85877;SDS011;76393;44.098;3.072;2024-02-26T11:51:27;3.50;;;0.47;;
85877;SDS011;76393;44.098;3.072;2024-02-26T11:53:53;2.60;;;0.30;;
85877;SDS011;76393;44.098;3.072;2024-02-26T11:56:21;2.47;;;0.50;;
85877;SDS011;76393;44.098;3.072;2024-02-26T11:58:48;3.22;;;0.30;;
85877;SDS011;76393;44.098;3.072;2024-02-26T12:04:15;2.25;;;0.20;;
85877;SDS011;76393;44.098;3.072;2024-02-26T12:06:50;2.35;;;0.40;;
85877;SDS011;76393;44.098;3.072;2024-02-26T12:12:10;3.47;;;0.38;;
85877;SDS011;76393;44.098;3.072;2024-02-26T12:14:40;3.53;;;0.30;;
85877;SDS011;76393;44.098;3.072;2024-02-26T12:17:19;5.22;;;0.32;;
85877;SDS011;76393;44.098;3.072;2024-02-26T12:19:46;3.30;;;0.50;;
85877;SDS011;76393;44.098;3.072;2024-02-26T12:22:15;2.50;;;0.40;;
85877;SDS011;76393;44.098;3.072;2024-02-26T12:24:41;5.32;;;0.88;;
85877;SDS011;76393;44.098;3.072;2024-02-26T12:27:07;3.38;;;0.57;;
85877;SDS011;76393;44.098;3.072;2024-02-26T12:29:33;3.60;;;0.73;;
85877;SDS011;76393;44.098;3.072;2024-02-26T12:31:59;3.50;;;0.47;;
85877;SDS011;76393;44.098;3.072;2024-02-26T12:34:24;3.42;;;0.60;;
85877;SDS011;76393;44.098;3.072;2024-02-26T12:36:50;4.95;;;0.95;;
85877;SDS011;76393;44.098;3.072;2024-02-26T12:39:16;3.42;;;0.47;;
85877;SDS011;76393;44.098;3.072;2024-02-26T12:41:41;2.65;;;0.50;;
85877;SDS011;76393;44.098;3.072;2024-02-26T12:44:26;1.90;;;0.30;;
85877;SDS011;76393;44.098;3.072;2024-02-26T12:46:59;2.72;;;0.30;;
85877;SDS011;76393;44.098;3.072;2024-02-26T12:49:30;3.00;;;0.47;;
85877;SDS011;76393;44.098;3.072;2024-02-26T12:51:56;2.42;;;0.30;;
85877;SDS011;76393;44.098;3.072;2024-02-26T12:54:32;2.58;;;0.60;;
85877;SDS011;76393;44.098;3.072;2024-02-26T12:57:00;4.78;;;0.40;;
85877;SDS011;76393;44.098;3.072;2024-02-26T12:59:25;3.28;;;0.30;;
85877;SDS011;76393;44.098;3.072;2024-02-26T13:01:51;2.80;;;0.30;;
85877;SDS011;76393;44.098;3.072;2024-02-26T13:04:17;3.00;;;0.20;;
85877;SDS011;76393;44.098;3.072;2024-02-26T13:06:43;2.88;;;0.28;;
85877;SDS011;76393;44.098;3.072;2024-02-26T13:09:12;2.95;;;0.35;;
85877;SDS011;76393;44.098;3.072;2024-02-26T13:11:39;2.78;;;0.65;;
85877;SDS011;76393;44.098;3.072;2024-02-26T13:14:05;1.50;;;0.20;;
85877;SDS011;76393;44.098;3.072;2024-02-26T13:16:31;2.92;;;0.40;;
85877;SDS011;76393;44.098;3.072;2024-02-26T13:19:19;2.58;;;0.25;;
85877;SDS011;76393;44.098;3.072;2024-02-26T13:21:44;2.13;;;0.30;;
85877;SDS011;76393;44.098;3.072;2024-02-26T13:24:12;1.90;;;0.20;;
85877;SDS011;76393;44.098;3.072;2024-02-26T13:26:38;2.00;;;0.20;;
85877;SDS011;76393;44.098;3.072;2024-02-26T13:29:05;3.13;;;0.30;;
85877;SDS011;76393;44.098;3.072;2024-02-26T13:31:31;2.28;;;0.30;;
85877;SDS011;76393;44.098;3.072;2024-02-26T13:33:57;1.85;;;0.20;;
85877;SDS011;76393;44.098;3.072;2024-02-26T13:36:22;3.42;;;0.57;;
85877;SDS011;76393;44.098;3.072;2024-02-26T13:38:52;3.28;;;0.40;;
85877;SDS011;76393;44.098;3.072;2024-02-26T13:41:18;3.08;;;0.43;;
85877;SDS011;76393;44.098;3.072;2024-02-26T13:43:43;3.55;;;0.43;;
85877;SDS011;76393;44.098;3.072;2024-02-26T13:46:10;3.10;;;0.95;;
85877;SDS011;76393;44.098;3.072;2024-02-26T13:48:37;2.80;;;0.55;;
85877;SDS011;76393;44.098;3.072;2024-02-26T13:51:03;3.83;;;0.43;;
85877;SDS011;76393;44.098;3.072;2024-02-26T13:53:29;2.90;;;0.40;;
85877;SDS011;76393;44.098;3.072;2024-02-26T13:55:55;1.23;;;0.20;;
85877;SDS011;76393;44.098;3.072;2024-02-26T13:58:21;2.38;;;0.60;;
85877;SDS011;76393;44.098;3.072;2024-02-26T14:00:49;2.72;;;0.60;;
85877;SDS011;76393;44.098;3.072;2024-02-26T14:03:14;1.95;;;0.38;;
85877;SDS011;76393;44.098;3.072;2024-02-26T14:05:41;4.50;;;0.40;;
85877;SDS011;76393;44.098;3.072;2024-02-26T14:08:07;1.20;;;0.35;;
85877;SDS011;76393;44.098;3.072;2024-02-26T14:10:32;4.15;;;0.50;;
85877;SDS011;76393;44.098;3.072;2024-02-26T14:12:58;2.88;;;0.60;;
85877;SDS011;76393;44.098;3.072;2024-02-26T14:15:24;1.90;;;0.45;;
85877;SDS011;76393;44.098;3.072;2024-02-26T14:17:50;3.35;;;0.40;;
85877;SDS011;76393;44.098;3.072;2024-02-26T14:20:20;1.83;;;0.40;;
85877;SDS011;76393;44.098;3.072;2024-02-26T14:22:45;2.50;;;0.45;;
85877;SDS011;76393;44.098;3.072;2024-02-26T14:25:11;2.38;;;0.40;;
85877;SDS011;76393;44.098;3.072;2024-02-26T14:27:37;5.18;;;0.82;;
85877;SDS011;76393;44.098;3.072;2024-02-26T14:30:03;1.52;;;0.30;;
85877;SDS011;76393;44.098;3.072;2024-02-26T14:32:29;3.42;;;0.57;;
85877;SDS011;76393;44.098;3.072;2024-02-26T14:34:56;2.22;;;0.25;;
85877;SDS011;76393;44.098;3.072;2024-02-26T14:37:21;3.75;;;0.50;;
85877;SDS011;76393;44.098;3.072;2024-02-26T14:39:47;1.48;;;0.20;;
85877;SDS011;76393;44.098;3.072;2024-02-26T14:42:15;2.25;;;0.50;;
85877;SDS011;76393;44.098;3.072;2024-02-26T14:44:43;1.83;;;0.32;;
85877;SDS011;76393;44.098;3.072;2024-02-26T14:47:10;3.35;;;0.40;;
85877;SDS011;76393;44.098;3.072;2024-02-26T14:49:35;2.50;;;0.35;;